sensor_id;sensor_type;location;lat;lon;timestamp;P1;durP1;ratioP1;P2;durP2;ratioP2
1693;SDS011;844;47.058;15.472;2022-12-18T00:00:39;23.00;;;16.40;;
1693;SDS011;844;47.058;15.472;2022-12-18T00:03:09;21.93;;;16.30;;
1693;SDS011;844;47.058;15.472;2022-12-18T00:05:46;18.93;;;16.10;;
1693;SDS011;844;47.058;15.472;2022-12-18T00:08:16;24.30;;;16.03;;
1693;SDS011;844;47.058;15.472;2022-12-18T00:10:47;17.63;;;15.37;;
1693;SDS011;844;47.058;15.472;2022-12-18T00:13:21;20.63;;;16.13;;
1693;SDS011;844;47.058;15.472;2022-12-18T00:15:54;18.90;;;16.87;;
1693;SDS011;844;47.058;15.472;2022-12-18T00:18:24;19.40;;;14.60;;
1693;SDS011;844;47.058;15.472;2022-12-18T00:20:54;18.20;;;15.23;;
1693;SDS011;844;47.058;15.472;2022-12-18T00:23:28;19.17;;;15.07;;
1693;SDS011;844;47.058;15.472;2022-12-18T00:25:59;18.67;;;14.93;;
1693;SDS011;844;47.058;15.472;2022-12-18T00:28:31;22.20;;;15.23;;
1693;SDS011;844;47.058;15.472;2022-12-18T00:31:02;16.87;;;14.30;;
1693;SDS011;844;47.058;15.472;2022-12-18T00:33:33;17.43;;;13.37;;
1693;SDS011;844;47.058;15.472;2022-12-18T00:36:05;15.40;;;13.80;;
1693;SDS011;844;47.058;15.472;2022-12-18T00:38:37;18.67;;;14.60;;
1693;SDS011;844;47.058;15.472;2022-12-18T00:41:08;19.03;;;13.50;;
1693;SDS011;844;47.058;15.472;2022-12-18T00:43:41;16.03;;;14.33;;
1693;SDS011;844;47.058;15.472;2022-12-18T00:46:10;14.97;;;12.17;;
1693;SDS011;844;47.058;15.472;2022-12-18T00:48:40;15.07;;;13.07;;
1693;SDS011;844;47.058;15.472;2022-12-18T00:51:11;12.80;;;11.50;;
1693;SDS011;844;47.058;15.472;2022-12-18T00:53:41;16.17;;;12.80;;
1693;SDS011;844;47.058;15.472;2022-12-18T00:56:11;12.73;;;11.43;;
1693;SDS011;844;47.058;15.472;2022-12-18T00:58:43;14.50;;;11.57;;
1693;SDS011;844;47.058;15.472;2022-12-18T01:01:13;15.03;;;13.37;;
1693;SDS011;844;47.058;15.472;2022-12-18T01:03:43;16.83;;;15.03;;
1693;SDS011;844;47.058;15.472;2022-12-18T01:06:14;16.50;;;13.03;;
1693;SDS011;844;47.058;15.472;2022-12-18T01:08:45;19.03;;;15.63;;
1693;SDS011;844;47.058;15.472;2022-12-18T01:11:16;16.50;;;14.80;;
1693;SDS011;844;47.058;15.472;2022-12-18T01:13:49;17.73;;;15.00;;
1693;SDS011;844;47.058;15.472;2022-12-18T01:16:20;16.07;;;13.47;;
1693;SDS011;844;47.058;15.472;2022-12-18T01:18:52;17.03;;;13.90;;
1693;SDS011;844;47.058;15.472;2022-12-18T01:21:23;15.70;;;13.50;;
1693;SDS011;844;47.058;15.472;2022-12-18T01:23:53;18.30;;;15.40;;
1693;SDS011;844;47.058;15.472;2022-12-18T01:26:24;18.73;;;14.93;;
1693;SDS011;844;47.058;15.472;2022-12-18T01:28:58;18.00;;;14.20;;
1693;SDS011;844;47.058;15.472;2022-12-18T01:31:28;19.47;;;16.13;;
1693;SDS011;844;47.058;15.472;2022-12-18T01:34:00;17.37;;;14.27;;
1693;SDS011;844;47.058;15.472;2022-12-18T01:36:31;17.70;;;13.57;;
1693;SDS011;844;47.058;15.472;2022-12-18T01:39:04;15.87;;;14.27;;
1693;SDS011;844;47.058;15.472;2022-12-18T01:41:35;16.67;;;13.53;;
1693;SDS011;844;47.058;15.472;2022-12-18T01:47:26;16.23;;;13.13;;
1693;SDS011;844;47.058;15.472;2022-12-18T01:49:59;18.07;;;13.93;;
1693;SDS011;844;47.058;15.472;2022-12-18T01:52:33;17.10;;;13.83;;
1693;SDS011;844;47.058;15.472;2022-12-18T01:55:04;17.57;;;15.20;;
1693;SDS011;844;47.058;15.472;2022-12-18T01:57:35;17.50;;;14.10;;
1693;SDS011;844;47.058;15.472;2022-12-18T02:00:09;15.47;;;12.70;;
1693;SDS011;844;47.058;15.472;2022-12-18T02:02:41;15.67;;;13.97;;
1693;SDS011;844;47.058;15.472;2022-12-18T02:05:16;17.93;;;15.87;;
1693;SDS011;844;47.058;15.472;2022-12-18T02:07:53;18.00;;;15.80;;
1693;SDS011;844;47.058;15.472;2022-12-18T02:10:31;15.80;;;13.90;;
1693;SDS011;844;47.058;15.472;2022-12-18T02:13:06;19.03;;;14.77;;
1693;SDS011;844;47.058;15.472;2022-12-18T02:15:43;20.00;;;15.70;;
1693;SDS011;844;47.058;15.472;2022-12-18T02:18:19;16.70;;;14.13;;
1693;SDS011;844;47.058;15.472;2022-12-18T02:20:53;18.23;;;13.83;;
1693;SDS011;844;47.058;15.472;2022-12-18T02:23:31;19.27;;;14.87;;
1693;SDS011;844;47.058;15.472;2022-12-18T02:26:19;16.13;;;13.53;;
1693;SDS011;844;47.058;15.472;2022-12-18T02:28:51;16.70;;;14.90;;
1693;SDS011;844;47.058;15.472;2022-12-18T02:31:25;17.37;;;13.93;;
1693;SDS011;844;47.058;15.472;2022-12-18T02:33:56;17.40;;;14.93;;
1693;SDS011;844;47.058;15.472;2022-12-18T02:36:30;14.13;;;12.57;;
1693;SDS011;844;47.058;15.472;2022-12-18T02:39:02;16.20;;;13.47;;
1693;SDS011;844;47.058;15.472;2022-12-18T02:41:35;14.40;;;12.87;;
1693;SDS011;844;47.058;15.472;2022-12-18T02:44:07;18.13;;;14.43;;
1693;SDS011;844;47.058;15.472;2022-12-18T02:46:38;15.07;;;13.40;;
1693;SDS011;844;47.058;15.472;2022-12-18T02:49:12;18.90;;;14.73;;
1693;SDS011;844;47.058;15.472;2022-12-18T02:51:52;17.50;;;13.77;;
1693;SDS011;844;47.058;15.472;2022-12-18T02:54:32;13.30;;;11.80;;
1693;SDS011;844;47.058;15.472;2022-12-18T02:57:13;15.33;;;12.63;;
1693;SDS011;844;47.058;15.472;2022-12-18T02:59:48;20.07;;;13.60;;
1693;SDS011;844;47.058;15.472;2022-12-18T03:02:24;15.17;;;13.10;;
1693;SDS011;844;47.058;15.472;2022-12-18T03:05:00;16.27;;;13.23;;
1693;SDS011;844;47.058;15.472;2022-12-18T03:07:34;15.53;;;12.30;;
1693;SDS011;844;47.058;15.472;2022-12-18T03:10:07;15.83;;;11.90;;
1693;SDS011;844;47.058;15.472;2022-12-18T03:12:42;13.60;;;11.73;;
1693;SDS011;844;47.058;15.472;2022-12-18T03:15:16;14.07;;;11.50;;
1693;SDS011;844;47.058;15.472;2022-12-18T03:17:50;12.43;;;11.23;;
1693;SDS011;844;47.058;15.472;2022-12-18T03:20:23;13.07;;;11.67;;
1693;SDS011;844;47.058;15.472;2022-12-18T03:22:56;14.43;;;12.43;;
1693;SDS011;844;47.058;15.472;2022-12-18T03:25:28;16.53;;;13.80;;
1693;SDS011;844;47.058;15.472;2022-12-18T03:28:03;13.80;;;12.30;;
1693;SDS011;844;47.058;15.472;2022-12-18T03:30:35;17.50;;;12.50;;
1693;SDS011;844;47.058;15.472;2022-12-18T03:33:10;14.70;;;13.13;;
1693;SDS011;844;47.058;15.472;2022-12-18T03:35:45;13.00;;;11.60;;
1693;SDS011;844;47.058;15.472;2022-12-18T03:38:17;16.23;;;11.90;;
1693;SDS011;844;47.058;15.472;2022-12-18T03:40:51;12.63;;;11.23;;
1693;SDS011;844;47.058;15.472;2022-12-18T03:43:33;13.80;;;11.23;;
1693;SDS011;844;47.058;15.472;2022-12-18T03:46:10;14.43;;;11.27;;
1693;SDS011;844;47.058;15.472;2022-12-18T03:48:44;13.23;;;11.73;;
1693;SDS011;844;47.058;15.472;2022-12-18T03:51:17;12.37;;;10.67;;
1693;SDS011;844;47.058;15.472;2022-12-18T03:53:53;14.33;;;10.60;;
1693;SDS011;844;47.058;15.472;2022-12-18T03:56:26;17.23;;;11.80;;
1693;SDS011;844;47.058;15.472;2022-12-18T03:59:01;14.43;;;12.93;;
1693;SDS011;844;47.058;15.472;2022-12-18T04:01:33;16.03;;;13.07;;
1693;SDS011;844;47.058;15.472;2022-12-18T04:04:06;15.40;;;11.83;;
1693;SDS011;844;47.058;15.472;2022-12-18T04:06:38;13.83;;;11.40;;
1693;SDS011;844;47.058;15.472;2022-12-18T04:09:08;14.07;;;10.90;;
1693;SDS011;844;47.058;15.472;2022-12-18T04:11:39;16.30;;;11.60;;
1693;SDS011;844;47.058;15.472;2022-12-18T04:14:13;13.53;;;11.40;;
1693;SDS011;844;47.058;15.472;2022-12-18T04:16:44;21.67;;;13.90;;
1693;SDS011;844;47.058;15.472;2022-12-18T04:19:14;17.90;;;13.77;;
1693;SDS011;844;47.058;15.472;2022-12-18T04:21:44;16.77;;;12.13;;
1693;SDS011;844;47.058;15.472;2022-12-18T04:24:15;16.00;;;11.87;;
1693;SDS011;844;47.058;15.472;2022-12-18T04:26:45;14.60;;;12.30;;
1693;SDS011;844;47.058;15.472;2022-12-18T04:29:16;18.17;;;12.93;;
1693;SDS011;844;47.058;15.472;2022-12-18T04:31:48;15.57;;;11.03;;
1693;SDS011;844;47.058;15.472;2022-12-18T04:34:19;15.07;;;12.07;;
1693;SDS011;844;47.058;15.472;2022-12-18T04:36:49;15.73;;;13.40;;
1693;SDS011;844;47.058;15.472;2022-12-18T04:39:19;16.77;;;12.50;;
1693;SDS011;844;47.058;15.472;2022-12-18T04:41:49;15.40;;;12.17;;
1693;SDS011;844;47.058;15.472;2022-12-18T04:44:20;14.23;;;10.77;;
1693;SDS011;844;47.058;15.472;2022-12-18T04:46:51;16.87;;;12.80;;
1693;SDS011;844;47.058;15.472;2022-12-18T04:49:22;14.60;;;11.53;;
1693;SDS011;844;47.058;15.472;2022-12-18T04:51:53;14.47;;;12.60;;
1693;SDS011;844;47.058;15.472;2022-12-18T04:54:23;13.70;;;10.93;;
1693;SDS011;844;47.058;15.472;2022-12-18T04:56:54;16.67;;;12.73;;
1693;SDS011;844;47.058;15.472;2022-12-18T04:59:26;16.23;;;13.57;;
1693;SDS011;844;47.058;15.472;2022-12-18T05:01:56;14.97;;;13.37;;
1693;SDS011;844;47.058;15.472;2022-12-18T05:04:26;15.47;;;13.07;;
1693;SDS011;844;47.058;15.472;2022-12-18T05:06:56;16.43;;;12.50;;
1693;SDS011;844;47.058;15.472;2022-12-18T05:09:26;15.83;;;12.67;;
1693;SDS011;844;47.058;15.472;2022-12-18T05:11:56;14.87;;;12.07;;
1693;SDS011;844;47.058;15.472;2022-12-18T05:14:28;14.10;;;12.30;;
1693;SDS011;844;47.058;15.472;2022-12-18T05:16:58;13.03;;;11.67;;
1693;SDS011;844;47.058;15.472;2022-12-18T05:19:29;16.60;;;12.87;;
1693;SDS011;844;47.058;15.472;2022-12-18T05:21:58;17.33;;;12.27;;
1693;SDS011;844;47.058;15.472;2022-12-18T05:24:29;16.23;;;11.77;;
1693;SDS011;844;47.058;15.472;2022-12-18T05:26:59;17.30;;;12.60;;
1693;SDS011;844;47.058;15.472;2022-12-18T05:29:33;20.97;;;14.83;;
1693;SDS011;844;47.058;15.472;2022-12-18T05:32:26;16.10;;;12.93;;
1693;SDS011;844;47.058;15.472;2022-12-18T05:34:56;15.13;;;12.80;;
1693;SDS011;844;47.058;15.472;2022-12-18T05:37:26;18.47;;;14.77;;
1693;SDS011;844;47.058;15.472;2022-12-18T05:39:57;18.20;;;15.40;;
1693;SDS011;844;47.058;15.472;2022-12-18T05:42:27;22.73;;;16.43;;
1693;SDS011;844;47.058;15.472;2022-12-18T05:44:58;18.00;;;15.07;;
1693;SDS011;844;47.058;15.472;2022-12-18T05:47:28;17.93;;;14.13;;
1693;SDS011;844;47.058;15.472;2022-12-18T05:49:59;16.60;;;14.13;;
1693;SDS011;844;47.058;15.472;2022-12-18T05:52:30;18.40;;;15.00;;
1693;SDS011;844;47.058;15.472;2022-12-18T05:55:00;16.60;;;13.97;;
1693;SDS011;844;47.058;15.472;2022-12-18T05:57:30;15.67;;;13.10;;
1693;SDS011;844;47.058;15.472;2022-12-18T06:00:01;20.10;;;15.57;;
1693;SDS011;844;47.058;15.472;2022-12-18T06:02:32;16.03;;;14.33;;
1693;SDS011;844;47.058;15.472;2022-12-18T06:05:05;15.03;;;12.80;;
1693;SDS011;844;47.058;15.472;2022-12-18T06:07:35;19.20;;;13.10;;
1693;SDS011;844;47.058;15.472;2022-12-18T06:10:05;20.17;;;15.80;;
1693;SDS011;844;47.058;15.472;2022-12-18T06:12:35;22.80;;;18.60;;
1693;SDS011;844;47.058;15.472;2022-12-18T06:15:09;22.63;;;17.40;;
1693;SDS011;844;47.058;15.472;2022-12-18T06:17:40;24.07;;;18.43;;
1693;SDS011;844;47.058;15.472;2022-12-18T06:20:10;21.57;;;18.10;;
1693;SDS011;844;47.058;15.472;2022-12-18T06:22:40;17.43;;;14.67;;
1693;SDS011;844;47.058;15.472;2022-12-18T06:25:11;20.53;;;15.10;;
1693;SDS011;844;47.058;15.472;2022-12-18T06:27:42;21.07;;;16.07;;
1693;SDS011;844;47.058;15.472;2022-12-18T06:30:13;18.50;;;13.80;;
1693;SDS011;844;47.058;15.472;2022-12-18T06:32:43;20.20;;;15.57;;
1693;SDS011;844;47.058;15.472;2022-12-18T06:35:22;18.53;;;15.30;;
1693;SDS011;844;47.058;15.472;2022-12-18T06:37:52;18.00;;;14.23;;
1693;SDS011;844;47.058;15.472;2022-12-18T06:40:22;17.40;;;14.90;;
1693;SDS011;844;47.058;15.472;2022-12-18T06:42:52;18.37;;;15.07;;
1693;SDS011;844;47.058;15.472;2022-12-18T06:45:23;18.23;;;14.90;;
1693;SDS011;844;47.058;15.472;2022-12-18T06:47:54;18.27;;;15.50;;
1693;SDS011;844;47.058;15.472;2022-12-18T06:50:25;15.83;;;13.70;;
1693;SDS011;844;47.058;15.472;2022-12-18T06:52:55;15.47;;;12.37;;
1693;SDS011;844;47.058;15.472;2022-12-18T06:55:25;16.47;;;13.90;;
1693;SDS011;844;47.058;15.472;2022-12-18T06:57:55;17.80;;;14.40;;
1693;SDS011;844;47.058;15.472;2022-12-18T07:00:27;18.53;;;14.97;;
1693;SDS011;844;47.058;15.472;2022-12-18T07:02:58;17.80;;;14.50;;
1693;SDS011;844;47.058;15.472;2022-12-18T07:05:41;16.50;;;14.20;;
1693;SDS011;844;47.058;15.472;2022-12-18T07:08:11;16.30;;;14.53;;
1693;SDS011;844;47.058;15.472;2022-12-18T07:10:43;17.03;;;14.67;;
1693;SDS011;844;47.058;15.472;2022-12-18T07:13:22;15.60;;;12.60;;
1693;SDS011;844;47.058;15.472;2022-12-18T07:15:53;18.60;;;14.37;;
1693;SDS011;844;47.058;15.472;2022-12-18T07:18:24;18.40;;;14.93;;
1693;SDS011;844;47.058;15.472;2022-12-18T07:20:53;15.00;;;12.63;;
1693;SDS011;844;47.058;15.472;2022-12-18T07:23:25;16.83;;;13.30;;
1693;SDS011;844;47.058;15.472;2022-12-18T07:25:55;18.63;;;15.03;;
1693;SDS011;844;47.058;15.472;2022-12-18T07:28:29;12.50;;;10.20;;
1693;SDS011;844;47.058;15.472;2022-12-18T07:31:03;12.40;;;10.77;;
1693;SDS011;844;47.058;15.472;2022-12-18T07:33:34;11.20;;;10.10;;
1693;SDS011;844;47.058;15.472;2022-12-18T07:36:05;17.90;;;11.43;;
1693;SDS011;844;47.058;15.472;2022-12-18T07:38:36;12.77;;;10.17;;
1693;SDS011;844;47.058;15.472;2022-12-18T07:41:07;13.10;;;10.77;;
1693;SDS011;844;47.058;15.472;2022-12-18T07:43:37;9.13;;;8.13;;
1693;SDS011;844;47.058;15.472;2022-12-18T07:46:10;9.93;;;8.73;;
1693;SDS011;844;47.058;15.472;2022-12-18T07:48:43;11.23;;;10.13;;
1693;SDS011;844;47.058;15.472;2022-12-18T07:51:16;11.83;;;8.60;;
1693;SDS011;844;47.058;15.472;2022-12-18T07:53:47;10.23;;;9.23;;
1693;SDS011;844;47.058;15.472;2022-12-18T07:56:19;9.43;;;8.60;;
1693;SDS011;844;47.058;15.472;2022-12-18T07:58:55;10.37;;;9.37;;
1693;SDS011;844;47.058;15.472;2022-12-18T08:01:29;11.23;;;8.63;;
1693;SDS011;844;47.058;15.472;2022-12-18T08:04:00;9.07;;;8.20;;
1693;SDS011;844;47.058;15.472;2022-12-18T08:06:30;9.27;;;8.33;;
1693;SDS011;844;47.058;15.472;2022-12-18T08:09:00;8.57;;;7.80;;
1693;SDS011;844;47.058;15.472;2022-12-18T08:11:30;10.57;;;8.40;;
1693;SDS011;844;47.058;15.472;2022-12-18T08:14:00;10.97;;;8.60;;
1693;SDS011;844;47.058;15.472;2022-12-18T08:16:36;10.17;;;8.10;;
1693;SDS011;844;47.058;15.472;2022-12-18T08:19:08;9.73;;;8.73;;
1693;SDS011;844;47.058;15.472;2022-12-18T08:21:38;9.47;;;8.47;;
1693;SDS011;844;47.058;15.472;2022-12-18T08:24:08;11.47;;;7.77;;
1693;SDS011;844;47.058;15.472;2022-12-18T08:26:39;8.80;;;7.43;;
1693;SDS011;844;47.058;15.472;2022-12-18T08:29:30;11.10;;;9.07;;
1693;SDS011;844;47.058;15.472;2022-12-18T08:32:03;10.03;;;7.97;;
1693;SDS011;844;47.058;15.472;2022-12-18T08:34:33;12.00;;;8.87;;
1693;SDS011;844;47.058;15.472;2022-12-18T08:37:03;10.87;;;9.77;;
1693;SDS011;844;47.058;15.472;2022-12-18T08:39:33;8.23;;;7.30;;
1693;SDS011;844;47.058;15.472;2022-12-18T08:42:04;10.43;;;8.00;;
1693;SDS011;844;47.058;15.472;2022-12-18T08:44:51;8.17;;;7.23;;
1693;SDS011;844;47.058;15.472;2022-12-18T08:47:22;10.50;;;9.20;;
1693;SDS011;844;47.058;15.472;2022-12-18T08:49:53;8.80;;;7.67;;
1693;SDS011;844;47.058;15.472;2022-12-18T08:52:22;11.73;;;9.30;;
1693;SDS011;844;47.058;15.472;2022-12-18T08:54:52;8.83;;;8.03;;
1693;SDS011;844;47.058;15.472;2022-12-18T08:57:22;12.50;;;8.63;;
1693;SDS011;844;47.058;15.472;2022-12-18T08:59:52;9.33;;;7.50;;
1693;SDS011;844;47.058;15.472;2022-12-18T09:02:23;8.33;;;7.20;;
1693;SDS011;844;47.058;15.472;2022-12-18T09:04:53;11.37;;;8.30;;
1693;SDS011;844;47.058;15.472;2022-12-18T09:07:23;12.73;;;8.77;;
1693;SDS011;844;47.058;15.472;2022-12-18T09:09:53;9.83;;;8.43;;
1693;SDS011;844;47.058;15.472;2022-12-18T09:12:23;10.83;;;9.73;;
1693;SDS011;844;47.058;15.472;2022-12-18T09:14:53;10.47;;;9.33;;
1693;SDS011;844;47.058;15.472;2022-12-18T09:17:25;10.17;;;8.80;;
1693;SDS011;844;47.058;15.472;2022-12-18T09:19:55;11.03;;;8.93;;
1693;SDS011;844;47.058;15.472;2022-12-18T09:22:25;11.37;;;9.47;;
1693;SDS011;844;47.058;15.472;2022-12-18T09:24:55;11.97;;;9.23;;
1693;SDS011;844;47.058;15.472;2022-12-18T09:27:24;10.63;;;9.13;;
1693;SDS011;844;47.058;15.472;2022-12-18T09:29:54;10.37;;;8.70;;
1693;SDS011;844;47.058;15.472;2022-12-18T09:32:26;10.20;;;9.10;;
1693;SDS011;844;47.058;15.472;2022-12-18T09:34:56;14.10;;;10.63;;
1693;SDS011;844;47.058;15.472;2022-12-18T09:37:26;13.83;;;10.90;;
1693;SDS011;844;47.058;15.472;2022-12-18T09:39:56;10.70;;;9.43;;
1693;SDS011;844;47.058;15.472;2022-12-18T09:42:26;12.97;;;11.63;;
1693;SDS011;844;47.058;15.472;2022-12-18T09:44:55;13.77;;;10.67;;
1693;SDS011;844;47.058;15.472;2022-12-18T09:47:29;17.47;;;11.70;;
1693;SDS011;844;47.058;15.472;2022-12-18T09:50:03;13.37;;;11.50;;
1693;SDS011;844;47.058;15.472;2022-12-18T09:52:51;16.83;;;12.23;;
1693;SDS011;844;47.058;15.472;2022-12-18T09:55:24;14.30;;;12.07;;
1693;SDS011;844;47.058;15.472;2022-12-18T09:58:05;16.57;;;13.60;;
1693;SDS011;844;47.058;15.472;2022-12-18T10:00:42;18.07;;;15.07;;
1693;SDS011;844;47.058;15.472;2022-12-18T10:03:14;16.87;;;13.30;;
1693;SDS011;844;47.058;15.472;2022-12-18T10:05:46;18.20;;;15.57;;
1693;SDS011;844;47.058;15.472;2022-12-18T10:08:24;17.57;;;14.63;;
1693;SDS011;844;47.058;15.472;2022-12-18T10:10:57;20.77;;;15.40;;
1693;SDS011;844;47.058;15.472;2022-12-18T10:13:34;17.43;;;14.10;;
1693;SDS011;844;47.058;15.472;2022-12-18T10:16:11;19.93;;;15.60;;
1693;SDS011;844;47.058;15.472;2022-12-18T10:21:45;18.00;;;15.77;;
1693;SDS011;844;47.058;15.472;2022-12-18T10:24:21;20.20;;;16.17;;
1693;SDS011;844;47.058;15.472;2022-12-18T10:26:59;21.10;;;15.90;;
1693;SDS011;844;47.058;15.472;2022-12-18T10:29:39;20.30;;;16.77;;
1693;SDS011;844;47.058;15.472;2022-12-18T10:32:10;21.30;;;16.57;;
1693;SDS011;844;47.058;15.472;2022-12-18T10:34:49;19.20;;;16.23;;
1693;SDS011;844;47.058;15.472;2022-12-18T10:37:28;22.70;;;16.60;;
1693;SDS011;844;47.058;15.472;2022-12-18T10:40:08;20.50;;;16.63;;
1693;SDS011;844;47.058;15.472;2022-12-18T10:42:50;20.90;;;16.10;;
1693;SDS011;844;47.058;15.472;2022-12-18T10:45:33;21.27;;;16.93;;
1693;SDS011;844;47.058;15.472;2022-12-18T10:48:04;25.57;;;17.80;;
1693;SDS011;844;47.058;15.472;2022-12-18T10:50:47;23.67;;;18.47;;
1693;SDS011;844;47.058;15.472;2022-12-18T10:53:39;24.10;;;17.93;;
1693;SDS011;844;47.058;15.472;2022-12-18T10:56:10;24.00;;;18.53;;
1693;SDS011;844;47.058;15.472;2022-12-18T10:58:40;24.50;;;19.53;;
1693;SDS011;844;47.058;15.472;2022-12-18T11:01:12;23.23;;;18.07;;
1693;SDS011;844;47.058;15.472;2022-12-18T11:03:43;21.77;;;18.80;;
1693;SDS011;844;47.058;15.472;2022-12-18T11:06:17;22.43;;;17.67;;
1693;SDS011;844;47.058;15.472;2022-12-18T11:08:57;24.70;;;18.00;;
1693;SDS011;844;47.058;15.472;2022-12-18T11:11:28;26.10;;;19.20;;
1693;SDS011;844;47.058;15.472;2022-12-18T11:14:01;26.00;;;19.97;;
1693;SDS011;844;47.058;15.472;2022-12-18T11:16:33;22.20;;;19.57;;
1693;SDS011;844;47.058;15.472;2022-12-18T11:19:16;29.00;;;20.73;;
1693;SDS011;844;47.058;15.472;2022-12-18T11:21:53;25.20;;;19.00;;
1693;SDS011;844;47.058;15.472;2022-12-18T11:24:25;30.13;;;21.77;;
1693;SDS011;844;47.058;15.472;2022-12-18T11:26:58;29.67;;;22.27;;
1693;SDS011;844;47.058;15.472;2022-12-18T11:29:33;23.20;;;19.43;;
1693;SDS011;844;47.058;15.472;2022-12-18T11:35:10;30.90;;;21.03;;
1693;SDS011;844;47.058;15.472;2022-12-18T11:37:48;30.27;;;22.30;;
1693;SDS011;844;47.058;15.472;2022-12-18T11:40:30;30.47;;;22.57;;
1693;SDS011;844;47.058;15.472;2022-12-18T11:43:09;33.27;;;22.10;;
1693;SDS011;844;47.058;15.472;2022-12-18T11:45:45;29.70;;;20.10;;
1693;SDS011;844;47.058;15.472;2022-12-18T11:48:23;31.20;;;21.90;;
1693;SDS011;844;47.058;15.472;2022-12-18T11:51:19;29.03;;;21.17;;
1693;SDS011;844;47.058;15.472;2022-12-18T11:53:55;91.60;;;53.57;;
1693;SDS011;844;47.058;15.472;2022-12-18T11:56:29;42.17;;;30.87;;
1693;SDS011;844;47.058;15.472;2022-12-18T11:59:04;31.10;;;19.67;;
1693;SDS011;844;47.058;15.472;2022-12-18T12:01:40;28.17;;;19.70;;
1693;SDS011;844;47.058;15.472;2022-12-18T12:04:26;27.53;;;20.60;;
1693;SDS011;844;47.058;15.472;2022-12-18T12:07:11;29.33;;;19.93;;
1693;SDS011;844;47.058;15.472;2022-12-18T12:10:00;33.23;;;20.17;;
1693;SDS011;844;47.058;15.472;2022-12-18T12:12:39;29.93;;;20.23;;
1693;SDS011;844;47.058;15.472;2022-12-18T12:15:20;29.00;;;20.17;;
1693;SDS011;844;47.058;15.472;2022-12-18T12:17:58;29.33;;;22.53;;
1693;SDS011;844;47.058;15.472;2022-12-18T12:20:42;26.30;;;21.37;;
1693;SDS011;844;47.058;15.472;2022-12-18T12:23:19;27.13;;;20.70;;
1693;SDS011;844;47.058;15.472;2022-12-18T12:25:58;31.50;;;20.00;;
1693;SDS011;844;47.058;15.472;2022-12-18T12:28:37;31.70;;;19.77;;
1693;SDS011;844;47.058;15.472;2022-12-18T12:31:22;31.13;;;21.50;;
1693;SDS011;844;47.058;15.472;2022-12-18T12:33:59;26.13;;;19.73;;
1693;SDS011;844;47.058;15.472;2022-12-18T12:36:35;28.00;;;22.33;;
1693;SDS011;844;47.058;15.472;2022-12-18T12:39:08;29.17;;;21.17;;
1693;SDS011;844;47.058;15.472;2022-12-18T12:41:44;33.23;;;21.43;;
1693;SDS011;844;47.058;15.472;2022-12-18T12:44:34;31.07;;;20.83;;
1693;SDS011;844;47.058;15.472;2022-12-18T12:47:11;26.10;;;18.97;;
1693;SDS011;844;47.058;15.472;2022-12-18T12:49:44;31.83;;;22.93;;
1693;SDS011;844;47.058;15.472;2022-12-18T12:52:20;30.13;;;21.10;;
1693;SDS011;844;47.058;15.472;2022-12-18T12:54:57;29.27;;;20.90;;
1693;SDS011;844;47.058;15.472;2022-12-18T12:57:33;33.53;;;20.03;;
1693;SDS011;844;47.058;15.472;2022-12-18T13:00:08;31.70;;;22.77;;
1693;SDS011;844;47.058;15.472;2022-12-18T13:02:42;30.70;;;21.40;;
1693;SDS011;844;47.058;15.472;2022-12-18T13:05:18;32.03;;;22.37;;
1693;SDS011;844;47.058;15.472;2022-12-18T13:07:50;32.77;;;23.50;;
1693;SDS011;844;47.058;15.472;2022-12-18T13:10:26;34.00;;;21.97;;
1693;SDS011;844;47.058;15.472;2022-12-18T13:13:06;32.50;;;22.13;;
1693;SDS011;844;47.058;15.472;2022-12-18T13:16:03;30.13;;;21.40;;
1693;SDS011;844;47.058;15.472;2022-12-18T13:18:34;30.77;;;21.50;;
1693;SDS011;844;47.058;15.472;2022-12-18T13:21:10;28.43;;;20.13;;
1693;SDS011;844;47.058;15.472;2022-12-18T13:23:45;28.93;;;22.50;;
1693;SDS011;844;47.058;15.472;2022-12-18T13:26:31;37.27;;;23.47;;
1693;SDS011;844;47.058;15.472;2022-12-18T13:29:03;39.13;;;23.80;;
1693;SDS011;844;47.058;15.472;2022-12-18T13:34:48;28.30;;;21.23;;
1693;SDS011;844;47.058;15.472;2022-12-18T13:37:39;47.13;;;26.17;;
1693;SDS011;844;47.058;15.472;2022-12-18T13:43:24;32.30;;;24.23;;
1693;SDS011;844;47.058;15.472;2022-12-18T13:46:03;32.20;;;22.30;;
1693;SDS011;844;47.058;15.472;2022-12-18T13:48:36;35.93;;;23.57;;
1693;SDS011;844;47.058;15.472;2022-12-18T13:51:09;33.43;;;22.87;;
1693;SDS011;844;47.058;15.472;2022-12-18T13:53:42;33.70;;;25.63;;
1693;SDS011;844;47.058;15.472;2022-12-18T13:56:16;34.93;;;24.13;;
1693;SDS011;844;47.058;15.472;2022-12-18T14:01:59;36.33;;;24.90;;
1693;SDS011;844;47.058;15.472;2022-12-18T14:04:35;38.90;;;25.30;;
1693;SDS011;844;47.058;15.472;2022-12-18T14:07:05;38.47;;;26.43;;
1693;SDS011;844;47.058;15.472;2022-12-18T14:09:36;32.80;;;20.77;;
1693;SDS011;844;47.058;15.472;2022-12-18T14:12:12;36.50;;;24.57;;
1693;SDS011;844;47.058;15.472;2022-12-18T14:15:02;36.33;;;25.27;;
1693;SDS011;844;47.058;15.472;2022-12-18T14:17:37;33.47;;;22.73;;
1693;SDS011;844;47.058;15.472;2022-12-18T14:20:12;34.87;;;22.57;;
1693;SDS011;844;47.058;15.472;2022-12-18T14:22:43;31.60;;;24.20;;
1693;SDS011;844;47.058;15.472;2022-12-18T14:25:15;34.40;;;22.90;;
1693;SDS011;844;47.058;15.472;2022-12-18T14:27:47;31.60;;;24.07;;
1693;SDS011;844;47.058;15.472;2022-12-18T14:30:25;33.07;;;22.40;;
1693;SDS011;844;47.058;15.472;2022-12-18T14:33:03;35.30;;;22.13;;
1693;SDS011;844;47.058;15.472;2022-12-18T14:35:35;32.97;;;24.20;;
1693;SDS011;844;47.058;15.472;2022-12-18T14:38:10;34.30;;;24.47;;
1693;SDS011;844;47.058;15.472;2022-12-18T14:40:54;36.43;;;24.80;;
1693;SDS011;844;47.058;15.472;2022-12-18T14:43:25;29.87;;;21.60;;
1693;SDS011;844;47.058;15.472;2022-12-18T14:45:57;34.90;;;22.80;;
1693;SDS011;844;47.058;15.472;2022-12-18T14:48:35;35.47;;;24.20;;
1693;SDS011;844;47.058;15.472;2022-12-18T14:51:12;33.00;;;24.47;;
1693;SDS011;844;47.058;15.472;2022-12-18T14:53:45;34.30;;;23.10;;
1693;SDS011;844;47.058;15.472;2022-12-18T14:56:21;34.33;;;24.10;;
1693;SDS011;844;47.058;15.472;2022-12-18T14:58:53;37.80;;;24.17;;
1693;SDS011;844;47.058;15.472;2022-12-18T15:01:28;38.60;;;23.70;;
1693;SDS011;844;47.058;15.472;2022-12-18T15:04:00;31.37;;;22.27;;
1693;SDS011;844;47.058;15.472;2022-12-18T15:06:33;27.80;;;20.83;;
1693;SDS011;844;47.058;15.472;2022-12-18T15:09:05;32.90;;;23.20;;
1693;SDS011;844;47.058;15.472;2022-12-18T15:11:55;36.50;;;23.67;;
1693;SDS011;844;47.058;15.472;2022-12-18T15:14:31;32.20;;;23.10;;
1693;SDS011;844;47.058;15.472;2022-12-18T15:17:03;30.33;;;21.77;;
1693;SDS011;844;47.058;15.472;2022-12-18T15:19:48;37.57;;;24.27;;
1693;SDS011;844;47.058;15.472;2022-12-18T15:22:21;28.57;;;21.77;;
1693;SDS011;844;47.058;15.472;2022-12-18T15:24:55;33.00;;;22.30;;
1693;SDS011;844;47.058;15.472;2022-12-18T15:27:26;28.80;;;22.40;;
1693;SDS011;844;47.058;15.472;2022-12-18T15:30:00;34.73;;;21.93;;
1693;SDS011;844;47.058;15.472;2022-12-18T15:32:46;28.83;;;20.73;;
1693;SDS011;844;47.058;15.472;2022-12-18T15:35:19;35.37;;;23.40;;
1693;SDS011;844;47.058;15.472;2022-12-18T15:37:51;31.73;;;22.87;;
1693;SDS011;844;47.058;15.472;2022-12-18T15:40:22;30.40;;;21.83;;
1693;SDS011;844;47.058;15.472;2022-12-18T15:42:53;31.17;;;21.87;;
1693;SDS011;844;47.058;15.472;2022-12-18T15:45:41;30.00;;;20.00;;
1693;SDS011;844;47.058;15.472;2022-12-18T15:48:15;29.00;;;20.87;;